Time;durP1;ratioP1;P1;durP2;ratioP2;P2;SDS_P1;SDS_P2;PMS_P1;PMS_P2;Temp;Humidity;BMP_temperature;BMP_pressure;BME280_temperature;BME280_humidity;BME280_pressure;Samples;Min_cycle;Max_cycle;Signal;HPM_P1;HPM_P2
2022/03/07 00:01:46;;;;;;;0.70;0.70;;;2.20;99.90;;;-143.19;100.00;53775.09;4961215;28;20221;-65
2022/03/07 00:04:16;;;;;;;0.65;0.65;;;2.20;99.90;;;-143.19;100.00;53775.09;4956069;28;20236;-64
2022/03/07 00:06:46;;;;;;;0.52;0.52;;;2.20;99.90;;;-143.19;100.00;53775.09;4933686;28;20206;-65
2022/03/07 00:09:14;;;;;;;0.65;0.65;;;2.40;99.90;;;-143.19;100.00;53775.09;4944752;28;20224;-64
2022/03/07 00:11:43;;;;;;;0.73;0.73;;;2.20;99.90;;;-143.19;100.00;53775.09;4941879;28;20225;-65
2022/03/07 00:14:12;;;;;;;0.50;0.50;;;2.10;99.90;;;-143.19;100.00;53775.09;4937442;28;20205;-65
2022/03/07 00:16:40;;;;;;;0.50;0.50;;;2.10;99.90;;;-143.19;100.00;53775.09;4941011;28;20232;-64
2022/03/07 00:19:08;;;;;;;0.65;0.65;;;2.10;99.90;;;-143.19;100.00;53775.09;4940647;28;20205;-65
2022/03/07 00:21:36;;;;;;;0.60;0.60;;;2.00;99.90;;;-143.19;100.00;53775.09;4942075;28;20705;-65
2022/03/07 00:24:07;;;;;;;3.22;3.00;;;2.00;99.90;;;-143.19;100.00;53775.09;4940168;28;20216;-65
2022/03/07 00:26:35;;;;;;;0.60;0.60;;;2.00;99.90;;;-143.19;100.00;53775.09;4944229;28;20217;-65
2022/03/07 00:29:04;;;;;;;0.50;0.50;;;2.00;99.90;;;-143.19;100.00;53775.09;4973327;28;20221;-65
2022/03/07 00:31:32;;;;;;;0.50;0.50;;;2.00;99.90;;;-143.19;100.00;53775.09;4956079;28;20224;-65
2022/03/07 00:34:00;;;;;;;0.40;0.40;;;1.90;99.90;;;-143.19;100.00;53775.09;4931847;28;20220;-65
2022/03/07 00:36:28;;;;;;;0.60;0.60;;;1.90;99.90;;;-143.19;100.00;53775.09;4921170;28;20236;-65
2022/03/07 00:38:56;;;;;;;0.60;0.60;;;1.90;99.90;;;-143.19;100.00;53775.09;4923345;28;20212;-65
2022/03/07 00:41:24;;;;;;;0.70;0.70;;;1.80;99.90;;;-143.19;100.00;53775.09;4940459;28;20229;-65
2022/03/07 00:43:52;;;;;;;0.77;0.77;;;1.90;99.90;;;-143.19;100.00;53775.09;4940926;28;20209;-65
2022/03/07 00:46:20;;;;;;;0.70;0.70;;;1.90;99.90;;;-143.19;100.00;53775.09;4927293;28;20224;-64
2022/03/07 00:48:48;;;;;;;0.60;0.60;;;1.90;99.90;;;-143.19;100.00;53775.09;4947756;28;20213;-64
2022/03/07 00:51:16;;;;;;;0.80;0.80;;;1.80;99.90;;;-143.19;100.00;53775.09;4950694;28;20210;-65
2022/03/07 00:53:44;;;;;;;0.50;0.50;;;1.80;99.90;;;-143.19;100.00;53775.09;4947742;28;20208;-65
2022/03/07 00:56:12;;;;;;;0.70;0.70;;;1.80;99.90;;;-143.19;100.00;53775.09;4975824;28;20235;-65
2022/03/07 00:58:41;;;;;;;0.60;0.60;;;1.90;99.90;;;-143.19;100.00;53775.09;4939812;28;20208;-65
2022/03/07 01:01:10;;;;;;;0.60;0.60;;;1.80;99.90;;;-143.19;100.00;53775.09;4957170;28;20209;-65
2022/03/07 01:03:38;;;;;;;0.60;0.60;;;1.90;99.90;;;-143.19;100.00;53775.09;4936315;28;20209;-65
2022/03/07 01:06:06;;;;;;;0.60;0.60;;;1.80;99.90;;;-143.19;100.00;53775.09;4939382;28;20225;-65
2022/03/07 01:08:34;;;;;;;1.75;1.65;;;1.70;99.90;;;-143.19;100.00;53775.09;4923521;28;20213;-65
2022/03/07 01:11:02;;;;;;;0.73;0.73;;;1.60;99.90;;;-143.19;100.00;53775.09;4940520;28;20220;-65
2022/03/07 01:13:30;;;;;;;0.60;0.60;;;1.70;99.90;;;-143.19;100.00;53775.09;4940143;28;20209;-64
2022/03/07 01:15:58;;;;;;;0.68;0.68;;;1.70;99.90;;;-143.19;100.00;53775.09;4923072;28;20696;-65
2022/03/07 01:18:27;;;;;;;0.60;0.60;;;2.00;99.90;;;-143.19;100.00;53775.09;4943510;28;20211;-65
2022/03/07 01:20:54;;;;;;;0.70;0.70;;;1.70;99.90;;;-143.19;100.00;53775.09;4954719;28;20213;-64
2022/03/07 01:23:23;;;;;;;0.63;0.63;;;1.60;99.90;;;-143.19;100.00;53775.09;4926586;28;20224;-65
2022/03/07 01:25:51;;;;;;;0.60;0.60;;;1.70;99.90;;;-143.19;100.00;53775.09;4943698;28;20206;-65
2022/03/07 01:28:21;;;;;;;0.60;0.60;;;1.70;99.90;;;-143.19;100.00;53775.09;4955870;28;20209;-65
2022/03/07 01:30:51;;;;;;;0.68;0.68;;;1.90;99.90;;;-143.19;100.00;53775.09;4974501;28;20211;-65
2022/03/07 01:33:20;;;;;;;0.50;0.50;;;1.80;99.90;;;-143.19;100.00;53775.09;4952509;23;20237;-65
2022/03/07 01:35:48;;;;;;;0.60;0.60;;;1.80;99.90;;;-143.19;100.00;53775.09;4928652;28;20202;-65
2022/03/07 01:38:16;;;;;;;0.70;0.70;;;1.70;99.90;;;-143.19;100.00;53775.09;4932871;28;20240;-65
2022/03/07 01:40:45;;;;;;;0.75;0.75;;;1.60;99.90;;;-143.19;100.00;53775.09;4924355;28;20205;-65
2022/03/07 01:43:14;;;;;;;0.60;0.60;;;1.70;99.90;;;-143.19;100.00;53775.09;4926770;28;20229;-65
2022/03/07 01:45:43;;;;;;;0.50;0.50;;;1.50;99.90;;;-143.19;100.00;53775.09;4926471;29;20586;-68
2022/03/07 01:48:11;;;;;;;0.90;0.90;;;1.50;99.90;;;-143.19;100.00;53775.09;4930465;28;20209;-68
2022/03/07 01:50:39;;;;;;;0.50;0.50;;;1.50;99.90;;;-143.19;100.00;53775.09;4921534;28;20225;-67
2022/03/07 01:53:09;;;;;;;0.70;0.70;;;1.60;99.90;;;-143.19;100.00;53775.09;4923788;29;20237;-68
2022/03/07 01:55:37;;;;;;;0.60;0.60;;;1.60;99.90;;;-143.19;100.00;53775.09;4939086;28;20202;-68
2022/03/07 01:58:05;;;;;;;0.70;0.70;;;1.50;99.90;;;-143.19;100.00;53775.09;4906055;29;20234;-68
2022/03/07 02:00:34;;;;;;;0.88;0.88;;;1.40;99.90;;;-143.19;100.00;53775.09;4907591;28;20213;-68
2022/03/07 02:03:03;;;;;;;0.80;0.80;;;1.50;99.90;;;-143.19;100.00;53775.09;4902405;28;20229;-67
2022/03/07 02:05:40;;;;;;;0.50;0.50;;;1.40;99.90;;;-143.19;100.00;53775.09;4925660;28;20206;-67
2022/03/07 02:08:15;;;;;;;0.70;0.70;;;1.40;99.90;;;-143.19;100.00;53775.09;4940843;29;20214;-68
2022/03/07 02:10:54;;;;;;;0.63;0.63;;;1.70;99.90;;;-143.19;100.00;53775.09;4922325;28;20232;-67
2022/03/07 02:13:22;;;;;;;0.80;0.80;;;1.30;99.90;;;-143.19;100.00;53775.09;4939602;29;20260;-67
2022/03/07 02:15:56;;;;;;;1.13;1.13;;;1.30;99.90;;;-143.19;100.00;53775.09;4921716;28;20209;-67
2022/03/07 02:18:31;;;;;;;0.80;0.80;;;1.20;99.90;;;-143.19;100.00;53775.09;4912816;28;20609;-67
2022/03/07 02:21:18;;;;;;;0.77;0.77;;;1.20;99.90;;;-143.19;100.00;53775.09;4902929;29;20209;-67
2022/03/07 02:24:14;;;;;;;1.00;1.00;;;1.30;99.90;;;-143.19;100.00;53775.09;4935440;29;20229;-67
2022/03/07 02:27:06;;;;;;;0.65;0.65;;;1.10;99.90;;;-143.19;100.00;53775.09;4907911;28;20214;-68
2022/03/07 02:29:36;;;;;;;0.80;0.80;;;1.10;99.90;;;-143.19;100.00;53775.09;4937293;28;20213;-67
2022/03/07 02:32:08;;;;;;;0.55;0.55;;;1.10;99.90;;;-143.19;100.00;53775.09;4917064;28;20255;-67
2022/03/07 02:34:44;;;;;;;0.70;0.70;;;1.10;99.90;;;-143.19;100.00;53775.09;4922374;28;20214;-67
2022/03/07 02:37:13;;;;;;;0.70;0.70;;;1.10;99.90;;;-143.19;100.00;53775.09;4951426;28;20230;-67
2022/03/07 02:39:54;;;;;;;0.60;0.60;;;1.00;99.90;;;-143.19;100.00;53775.09;4931979;28;20217;-67
2022/03/07 02:42:40;;;;;;;0.90;0.90;;;1.10;99.90;;;-143.19;100.00;53775.09;4958146;28;20690;-67
2022/03/07 02:45:09;;;;;;;0.80;0.80;;;1.00;99.90;;;-143.19;100.00;53775.09;4901774;28;20214;-67
2022/03/07 02:47:37;;;;;;;0.80;0.80;;;1.00;99.90;;;-143.19;100.00;53775.09;4922511;28;20222;-68
2022/03/07 02:50:05;;;;;;;1.05;1.05;;;1.00;99.90;;;-143.19;100.00;53775.09;4961315;28;20217;-67
2022/03/07 02:52:33;;;;;;;0.50;0.50;;;1.00;99.90;;;-143.19;100.00;53775.09;4920983;29;20230;-67
2022/03/07 02:55:02;;;;;;;1.00;1.00;;;1.00;99.90;;;-143.19;100.00;53775.09;4930014;28;20233;-67
2022/03/07 02:57:30;;;;;;;1.00;1.00;;;1.00;99.90;;;-143.19;100.00;53775.09;4961827;28;20230;-68
2022/03/07 02:59:57;;;;;;;0.90;0.90;;;0.90;99.90;;;-143.19;100.00;53775.09;4924081;28;20197;-68
2022/03/07 03:02:25;;;;;;;0.70;0.70;;;0.90;99.90;;;-143.19;100.00;53775.09;4959541;28;20226;-67
2022/03/07 03:04:53;;;;;;;0.70;0.70;;;1.20;99.90;;;-143.19;100.00;53775.09;4919335;28;20209;-67
2022/03/07 03:07:21;;;;;;;0.60;0.60;;;1.00;99.90;;;-143.19;100.00;53775.09;4923943;29;20205;-67
2022/03/07 03:09:49;;;;;;;0.70;0.70;;;1.00;99.90;;;-143.19;100.00;53775.09;4949588;28;20225;-67
2022/03/07 03:12:24;;;;;;;0.70;0.70;;;1.00;99.90;;;-143.19;100.00;53775.09;4917237;29;20244;-68
2022/03/07 03:14:52;;;;;;;0.85;0.85;;;1.00;99.90;;;-143.19;100.00;53775.09;4928888;28;20218;-67
2022/03/07 03:17:20;;;;;;;0.77;0.77;;;1.10;99.90;;;-143.19;100.00;53775.09;4906200;28;20233;-67
2022/03/07 03:19:48;;;;;;;0.80;0.80;;;0.90;99.90;;;-143.19;100.00;53775.09;4907696;28;20412;-67
2022/03/07 03:22:19;;;;;;;0.50;0.50;;;1.00;99.90;;;-143.19;100.00;53775.09;4903043;29;20233;-67
2022/03/07 03:24:48;;;;;;;0.82;0.82;;;1.00;99.90;;;-143.19;100.00;53775.09;4901397;28;20221;-67
2022/03/07 03:27:16;;;;;;;0.80;0.80;;;1.00;99.90;;;-143.19;100.00;53775.09;4951372;28;20214;-67
2022/03/07 03:29:44;;;;;;;1.10;1.05;;;1.00;99.90;;;-143.19;100.00;53775.09;4930500;28;20222;-68
2022/03/07 03:32:12;;;;;;;0.73;0.73;;;1.50;99.90;;;-143.19;100.00;53775.09;4919766;29;20248;-67
2022/03/07 03:34:41;;;;;;;0.80;0.80;;;1.00;99.90;;;-143.19;100.00;53775.09;4902974;28;20206;-67
2022/03/07 03:37:09;;;;;;;0.90;0.90;;;1.20;99.90;;;-143.19;100.00;53775.09;4919454;29;20225;-67
2022/03/07 03:39:36;;;;;;;1.02;1.02;;;1.00;99.90;;;-143.19;100.00;53775.09;4956193;28;20222;-67
2022/03/07 03:42:05;;;;;;;0.60;0.60;;;1.00;99.90;;;-143.19;100.00;53775.09;4931271;29;20245;-67
2022/03/07 03:44:32;;;;;;;0.80;0.80;;;1.00;99.90;;;-143.19;100.00;53775.09;4922367;29;20206;-67
2022/03/07 03:47:01;;;;;;;0.75;0.75;;;1.10;99.90;;;-143.19;100.00;53775.09;4919817;28;20205;-67
2022/03/07 03:49:30;;;;;;;0.60;0.60;;;0.90;99.90;;;-143.19;100.00;53775.09;4918140;29;20202;-67
2022/03/07 03:51:57;;;;;;;0.90;0.90;;;0.90;99.90;;;-143.19;100.00;53775.09;4930841;28;20225;-67
2022/03/07 03:54:26;;;;;;;0.80;0.80;;;1.20;99.90;;;-143.19;100.00;53775.09;4917615;29;20210;-67
2022/03/07 03:56:54;;;;;;;0.80;0.80;;;0.90;99.90;;;-143.19;100.00;53775.09;4946366;28;20303;-68
2022/03/07 03:59:22;;;;;;;0.95;0.95;;;0.80;99.90;;;-143.19;100.00;53775.09;4913564;29;20233;-68
2022/03/07 04:01:50;;;;;;;0.90;0.90;;;0.80;99.90;;;-143.19;100.00;53775.09;4916613;28;20245;-67
2022/03/07 04:04:18;;;;;;;0.80;0.80;;;1.10;99.90;;;-143.19;100.00;53775.09;4914666;29;20209;-67
2022/03/07 04:06:46;;;;;;;0.85;0.85;;;0.80;99.90;;;-143.19;100.00;53775.09;4915694;28;20214;-67
2022/03/07 04:09:20;;;;;;;1.02;1.02;;;0.80;99.90;;;-143.19;100.00;53775.09;4898498;29;20210;-67
2022/03/07 04:11:49;;;;;;;0.80;0.80;;;0.70;99.90;;;-143.19;100.00;53775.09;4944864;28;20238;-67
2022/03/07 04:14:17;;;;;;;0.65;0.65;;;0.70;99.90;;;-143.19;100.00;53775.09;4930927;29;20209;-67
2022/03/07 04:16:45;;;;;;;0.60;0.60;;;0.70;99.90;;;-143.19;100.00;53775.09;4903923;28;20205;-67
2022/03/07 04:19:15;;;;;;;0.60;0.60;;;0.70;99.90;;;-143.19;100.00;53775.09;4926044;29;20757;-67
2022/03/07 04:21:44;;;;;;;0.90;0.90;;;0.70;99.90;;;-143.19;100.00;53775.09;4933031;28;20233;-67
2022/03/07 04:24:13;;;;;;;1.20;1.10;;;0.70;99.90;;;-143.19;100.00;53775.09;4917450;28;20213;-68
2022/03/07 04:26:42;;;;;;;0.70;0.70;;;0.80;99.90;;;-143.19;100.00;53775.09;4904997;28;20280;-67
2022/03/07 04:29:11;;;;;;;0.88;0.88;;;0.60;99.90;;;-143.19;100.00;53775.09;4907670;29;20225;-67
2022/03/07 04:31:43;;;;;;;0.70;0.70;;;0.60;99.90;;;-143.19;100.00;53775.09;4921447;28;20225;-67
2022/03/07 04:34:14;;;;;;;1.10;1.05;;;0.60;99.90;;;-143.19;100.00;53775.09;4931676;28;20218;-67
2022/03/07 04:36:42;;;;;;;0.70;0.70;;;0.70;99.90;;;-143.19;100.00;53775.09;4929047;28;20222;-67
2022/03/07 04:39:11;;;;;;;0.70;0.70;;;0.60;99.90;;;-143.19;100.00;53775.09;4939226;28;20247;-67
2022/03/07 04:41:40;;;;;;;0.60;0.60;;;0.50;99.90;;;-143.19;100.00;53775.09;4919295;28;20230;-67
2022/03/07 04:44:07;;;;;;;0.70;0.70;;;0.50;99.90;;;-143.19;100.00;53775.09;4915772;29;20209;-67
2022/03/07 04:46:36;;;;;;;0.80;0.80;;;0.60;99.90;;;-143.19;100.00;53775.09;4900939;29;20217;-67
2022/03/07 04:49:04;;;;;;;0.80;0.80;;;0.60;99.90;;;-143.19;100.00;53775.09;4932733;29;20214;-67
2022/03/07 04:51:32;;;;;;;0.60;0.60;;;0.50;99.90;;;-143.19;100.00;53775.09;4900416;28;20213;-67
2022/03/07 04:54:00;;;;;;;0.80;0.80;;;0.50;99.90;;;-143.19;100.00;53775.09;4916002;28;20216;-67
2022/03/07 04:56:28;;;;;;;0.60;0.60;;;0.50;99.90;;;-143.19;100.00;53775.09;4925737;29;20214;-68
2022/03/07 04:58:56;;;;;;;0.60;0.60;;;0.60;99.90;;;-143.19;100.00;53775.09;4901850;28;20240;-68
2022/03/07 05:01:24;;;;;;;1.00;0.90;;;0.50;99.90;;;-143.19;100.00;53775.09;4911168;28;20228;-67
2022/03/07 05:03:53;;;;;;;1.27;1.17;;;0.40;99.90;;;-143.19;100.00;53775.09;4950026;28;20202;-67
2022/03/07 05:06:21;;;;;;;0.68;0.68;;;0.40;99.90;;;-143.19;100.00;53775.09;4928244;29;20206;-67
2022/03/07 05:08:48;;;;;;;0.80;0.80;;;0.50;99.90;;;-143.19;100.00;53775.09;4909319;28;20209;-67
2022/03/07 05:11:16;;;;;;;0.90;0.90;;;0.40;99.90;;;-143.19;100.00;53775.09;4949938;28;20210;-67
2022/03/07 05:13:44;;;;;;;0.68;0.68;;;0.50;99.90;;;-143.19;100.00;53775.09;4958430;28;20210;-67
2022/03/07 05:16:12;;;;;;;0.60;0.60;;;0.40;99.90;;;-143.19;100.00;53775.09;4923198;29;20206;-67
2022/03/07 05:18:40;;;;;;;0.65;0.65;;;0.40;99.90;;;-143.19;100.00;53775.09;4949824;28;20230;-67
2022/03/07 05:21:09;;;;;;;0.80;0.80;;;0.30;99.90;;;-143.19;100.00;53775.09;4921805;29;20666;-67
2022/03/07 05:23:38;;;;;;;0.77;0.77;;;0.70;99.90;;;-143.19;100.00;53775.09;4920443;29;20245;-67
2022/03/07 05:26:08;;;;;;;0.88;0.88;;;0.30;99.90;;;-143.19;100.00;53775.09;4920202;29;20671;-67
2022/03/07 05:28:36;;;;;;;0.82;0.82;;;0.40;99.90;;;-143.19;100.00;53775.09;4905654;29;20214;-67
2022/03/07 05:31:05;;;;;;;0.75;0.75;;;0.30;99.90;;;-143.19;100.00;53775.09;4917317;29;20203;-67
2022/03/07 05:33:33;;;;;;;0.68;0.68;;;0.30;99.90;;;-143.19;100.00;53775.09;4939483;28;20234;-67
2022/03/07 05:36:01;;;;;;;0.88;0.88;;;0.30;99.90;;;-143.19;100.00;53775.09;4922912;29;20208;-67
2022/03/07 05:38:29;;;;;;;0.60;0.60;;;0.30;99.90;;;-143.19;100.00;53775.09;4922098;29;20224;-67
2022/03/07 05:40:57;;;;;;;2.35;2.25;;;0.30;99.90;;;-143.19;100.00;53775.09;4923781;29;20201;-67
2022/03/07 05:43:25;;;;;;;1.00;1.00;;;0.20;99.90;;;-143.19;100.00;53775.09;4922558;29;20215;-67
2022/03/07 05:45:53;;;;;;;0.77;0.77;;;0.30;99.90;;;-143.19;100.00;53775.09;4920674;29;20210;-67
2022/03/07 05:48:22;;;;;;;0.60;0.60;;;0.40;99.90;;;-143.19;100.00;53775.09;4919456;29;20202;-67
2022/03/07 05:50:50;;;;;;;0.50;0.50;;;0.20;99.90;;;-143.19;100.00;53775.09;4952746;29;20205;-67
2022/03/07 05:53:21;;;;;;;0.63;0.63;;;0.20;99.90;;;-143.19;100.00;53775.09;4908950;29;20225;-67
2022/03/07 05:55:50;;;;;;;0.70;0.70;;;0.30;99.90;;;-143.19;100.00;53775.09;4934539;29;20206;-68
2022/03/07 05:58:19;;;;;;;0.60;0.60;;;0.20;99.90;;;-143.19;100.00;53775.09;4902538;29;20203;-68
2022/03/07 06:00:47;;;;;;;0.63;0.63;;;0.20;99.90;;;-143.19;100.00;53775.09;4951594;29;20654;-67
2022/03/07 06:03:16;;;;;;;0.60;0.60;;;0.30;99.90;;;-143.19;100.00;53775.09;4905606;29;20233;-67
2022/03/07 06:05:44;;;;;;;0.60;0.60;;;0.20;99.90;;;-143.19;100.00;53775.09;4904130;29;20714;-67
2022/03/07 06:08:17;;;;;;;0.70;0.70;;;0.20;99.90;;;-143.19;100.00;53775.09;4922110;29;20197;-68
2022/03/07 06:10:45;;;;;;;0.70;0.70;;;0.10;99.90;;;-143.19;100.00;53775.09;4906163;29;20210;-67
2022/03/07 06:13:13;;;;;;;0.50;0.50;;;0.20;99.90;;;-143.19;100.00;53775.09;4889836;29;20227;-67
2022/03/07 06:15:43;;;;;;;0.60;0.60;;;0.10;99.90;;;-143.19;100.00;53775.09;4936670;29;20203;-67
2022/03/07 06:18:12;;;;;;;0.60;0.60;;;0.40;99.90;;;-143.19;100.00;53775.09;4921433;29;20209;-67
2022/03/07 06:20:40;;;;;;;0.50;0.50;;;0.10;99.90;;;-143.19;100.00;53775.09;4937462;29;20226;-67
2022/03/07 06:23:09;;;;;;;0.70;0.70;;;0.10;99.90;;;-143.19;100.00;53775.09;4921416;29;20726;-67
2022/03/07 06:25:37;;;;;;;0.70;0.70;;;0.10;99.90;;;-143.19;100.00;53775.09;4920611;29;20667;-67
2022/03/07 06:28:05;;;;;;;0.70;0.70;;;0.30;99.90;;;-143.19;100.00;53775.09;4936751;29;20681;-67
2022/03/07 06:30:33;;;;;;;0.70;0.70;;;0.20;99.90;;;-143.19;100.00;53775.09;4921706;29;20214;-67
2022/03/07 06:33:01;;;;;;;0.70;0.70;;;0.10;99.90;;;-143.19;100.00;53775.09;4913987;29;20231;-67
2022/03/07 06:35:29;;;;;;;0.75;0.75;;;0.10;99.90;;;-143.19;100.00;53775.09;4902343;29;20211;-67
2022/03/07 06:37:57;;;;;;;0.73;0.73;;;0.10;99.90;;;-143.19;100.00;53775.09;4947312;29;20221;-67
2022/03/07 06:40:27;;;;;;;0.70;0.70;;;0.10;99.90;;;-143.19;100.00;53775.09;4936811;29;20230;-67
2022/03/07 06:42:55;;;;;;;0.70;0.70;;;0.10;99.90;;;-143.19;100.00;53775.09;4921064;29;20237;-67
2022/03/07 06:45:23;;;;;;;0.80;0.80;;;0.10;99.90;;;-143.19;100.00;53775.09;4920456;29;20209;-67
2022/03/07 06:47:51;;;;;;;0.70;0.70;;;0.10;99.90;;;-143.19;100.00;53775.09;4937384;29;20214;-67
2022/03/07 06:50:19;;;;;;;0.80;0.80;;;0.20;99.90;;;-143.19;100.00;53775.09;4922303;28;20214;-67
2022/03/07 06:52:48;;;;;;;0.60;0.60;;;0.10;99.90;;;-143.19;100.00;53775.09;4922183;29;20868;-67
2022/03/07 06:55:16;;;;;;;0.70;0.70;;;0.20;99.90;;;-143.19;100.00;53775.09;4908350;29;20217;-67
2022/03/07 06:57:44;;;;;;;0.80;0.80;;;0.60;99.90;;;-143.19;100.00;53775.09;4935279;29;20595;-68
2022/03/07 07:00:15;;;;;;;0.90;0.90;;;0.30;99.90;;;-143.19;100.00;53775.09;4950467;28;20237;-67
2022/03/07 07:02:45;;;;;;;0.82;0.82;;;0.30;99.90;;;-143.19;100.00;53775.09;4965340;28;20229;-67
2022/03/07 07:05:15;;;;;;;0.50;0.50;;;0.30;99.90;;;-143.19;100.00;53775.09;4939758;28;20206;-67
2022/03/07 07:07:44;;;;;;;0.60;0.60;;;0.30;99.90;;;-143.19;100.00;53775.09;4934923;28;20214;-67
2022/03/07 07:10:15;;;;;;;0.60;0.60;;;0.20;99.90;;;-143.19;100.00;53775.09;4901986;29;20226;-67
2022/03/07 07:12:43;;;;;;;0.60;0.60;;;0.30;99.90;;;-143.19;100.00;53775.09;4947795;28;20241;-66
2022/03/07 07:15:11;;;;;;;0.70;0.70;;;0.20;99.90;;;-143.19;100.00;53775.09;4952496;29;20205;-67
2022/03/07 07:17:40;;;;;;;0.70;0.70;;;0.30;99.90;;;-143.19;100.00;53775.09;4909569;29;20208;-67
2022/03/07 07:20:10;;;;;;;0.75;0.75;;;0.10;99.90;;;-143.19;100.00;53775.09;4917593;29;20226;-67
2022/03/07 07:22:40;;;;;;;0.77;0.77;;;0.20;99.90;;;-143.19;100.00;53775.09;4925809;29;20229;-66
2022/03/07 07:25:09;;;;;;;0.60;0.60;;;0.30;99.90;;;-143.19;100.00;53775.09;4917695;29;20199;-67
2022/03/07 07:27:38;;;;;;;0.80;0.80;;;0.30;99.90;;;-143.19;100.00;53775.09;4904810;29;20203;-67
2022/03/07 07:30:09;;;;;;;0.80;0.80;;;0.50;99.90;;;-143.19;100.00;53775.09;4901773;29;20215;-67
2022/03/07 07:32:40;;;;;;;0.82;0.82;;;0.30;99.90;;;-143.19;100.00;53775.09;4930567;23;20236;-66
2022/03/07 07:35:10;;;;;;;0.80;0.80;;;0.40;99.90;;;-143.19;100.00;53775.09;4939114;28;20212;-66
2022/03/07 07:37:38;;;;;;;0.80;0.80;;;0.40;99.90;;;-143.19;100.00;53775.09;4935491;29;20214;-66
2022/03/07 07:40:07;;;;;;;0.60;0.60;;;0.60;99.90;;;-143.19;100.00;53775.09;4934584;28;20257;-65
2022/03/07 07:42:35;;;;;;;0.70;0.70;;;0.50;99.90;;;-143.19;100.00;53775.09;4920196;29;20230;-66
2022/03/07 07:45:09;;;;;;;0.60;0.60;;;0.50;99.90;;;-143.19;100.00;53775.09;4905819;28;20214;-66
2022/03/07 07:47:37;;;;;;;0.60;0.60;;;0.50;99.90;;;-143.19;100.00;53775.09;4951014;29;20210;-66
2022/03/07 07:50:06;;;;;;;0.80;0.80;;;0.60;99.90;;;-143.19;100.00;53775.09;4903906;29;20206;-66
2022/03/07 07:52:34;;;;;;;0.60;0.60;;;0.60;99.90;;;-143.19;100.00;53775.09;4904233;29;20225;-67
2022/03/07 07:55:05;;;;;;;0.90;0.90;;;0.80;99.90;;;-143.19;100.00;53775.09;4903700;29;20202;-67
2022/03/07 07:57:34;;;;;;;0.70;0.70;;;0.90;99.90;;;-143.19;100.00;53775.09;4935538;29;20206;-67
2022/03/07 08:00:04;;;;;;;0.60;0.60;;;1.10;99.90;;;-143.19;100.00;53775.09;4919739;29;20236;-66
2022/03/07 08:02:50;;;;;;;0.90;0.90;;;1.00;99.90;;;-143.19;100.00;53775.09;4934927;29;20572;-66
2022/03/07 08:05:19;;;;;;;0.80;0.80;;;1.00;99.90;;;-143.19;100.00;53775.09;4935309;29;20202;-66
2022/03/07 08:07:48;;;;;;;0.70;0.70;;;1.00;99.90;;;-143.19;100.00;53775.09;4916685;29;20202;-66
2022/03/07 08:10:17;;;;;;;0.70;0.70;;;1.40;99.90;;;-143.19;100.00;53775.09;4916837;29;20214;-66
2022/03/07 08:12:46;;;;;;;0.70;0.70;;;0.90;99.90;;;-143.19;100.00;53775.09;4936080;29;20230;-66
2022/03/07 08:15:19;;;;;;;0.60;0.60;;;1.10;99.90;;;-143.19;100.00;53775.09;4931190;29;20589;-66
2022/03/07 08:17:50;;;;;;;0.60;0.60;;;1.00;99.90;;;-143.19;100.00;53775.09;4915976;29;20206;-66
2022/03/07 08:20:21;;;;;;;0.70;0.70;;;0.90;99.90;;;-143.19;100.00;53775.09;4930362;29;20218;-66
2022/03/07 08:22:50;;;;;;;0.60;0.60;;;1.10;99.90;;;-143.19;100.00;53775.09;4902465;29;20708;-66
2022/03/07 08:25:20;;;;;;;0.73;0.73;;;1.00;99.90;;;-143.19;100.00;53775.09;4925527;29;20198;-66
2022/03/07 08:27:49;;;;;;;1.40;1.35;;;1.00;99.90;;;-143.19;100.00;53775.09;4922451;29;20202;-67
2022/03/07 08:30:22;;;;;;;0.60;0.60;;;1.70;99.90;;;-143.19;100.00;53775.09;4903591;29;20217;-66
2022/03/07 08:32:51;;;;;;;0.63;0.63;;;1.10;99.90;;;-143.19;100.00;53775.09;4899056;29;20241;-67
2022/03/07 08:35:20;;;;;;;0.95;0.95;;;1.20;99.90;;;-143.19;100.00;53775.09;4912139;29;20203;-67
2022/03/07 08:37:52;;;;;;;1.08;1.08;;;1.20;99.90;;;-143.19;100.00;53775.09;4913263;29;20327;-66
2022/03/07 08:40:23;;;;;;;0.70;0.70;;;1.20;99.90;;;-143.19;100.00;53775.09;4916066;29;20238;-66
2022/03/07 08:42:52;;;;;;;0.65;0.65;;;1.40;99.90;;;-143.19;100.00;53775.09;4931026;29;20254;-66
2022/03/07 08:45:22;;;;;;;0.70;0.70;;;1.30;99.90;;;-143.19;100.00;53775.09;4932300;29;20203;-66
2022/03/07 08:48:06;;;;;;;0.82;0.82;;;1.30;99.90;;;-143.19;100.00;53775.09;4933881;29;20210;-66
2022/03/07 08:50:34;;;;;;;0.80;0.80;;;1.20;99.90;;;-143.19;100.00;53775.09;4918335;29;20211;-66
2022/03/07 08:53:03;;;;;;;0.80;0.80;;;1.30;99.90;;;-143.19;100.00;53775.09;4948124;28;20239;-66
2022/03/07 08:55:31;;;;;;;0.55;0.55;;;1.30;99.90;;;-143.19;100.00;53775.09;4934732;29;20207;-66
2022/03/07 08:57:59;;;;;;;0.73;0.73;;;1.40;99.90;;;-143.19;100.00;53775.09;4915878;29;20231;-67
2022/03/07 09:00:27;;;;;;;0.70;0.70;;;1.50;99.90;;;-143.19;100.00;53775.09;4935166;29;20221;-66
2022/03/07 09:02:55;;;;;;;0.68;0.68;;;1.50;99.90;;;-143.19;100.00;53775.09;4902977;29;20223;-66
2022/03/07 09:05:23;;;;;;;0.60;0.60;;;1.50;99.90;;;-143.19;100.00;53775.09;4919071;29;20207;-66
2022/03/07 09:07:51;;;;;;;0.60;0.60;;;1.40;99.90;;;-143.19;100.00;53775.09;4918734;29;20207;-66
2022/03/07 09:10:19;;;;;;;0.70;0.70;;;1.70;99.90;;;-143.19;100.00;53775.09;4919520;29;20222;-66
2022/03/07 09:12:48;;;;;;;0.70;0.70;;;1.60;99.90;;;-143.19;100.00;53775.09;4934481;29;20218;-66
2022/03/07 09:15:16;;;;;;;0.80;0.80;;;1.70;99.90;;;-143.19;100.00;53775.09;4904251;29;20215;-66
2022/03/07 09:17:44;;;;;;;0.70;0.70;;;1.70;99.90;;;-143.19;100.00;53775.09;4933151;29;20207;-66
2022/03/07 09:20:16;;;;;;;0.70;0.70;;;1.80;99.90;;;-143.19;100.00;53775.09;4915424;29;20215;-64
2022/03/07 09:22:46;;;;;;;0.70;0.70;;;2.10;99.90;;;-143.19;100.00;53775.09;4919663;29;20218;-64
2022/03/07 09:25:15;;;;;;;0.70;0.70;;;2.10;99.90;;;-143.19;100.00;53775.09;4902912;29;20209;-64
2022/03/07 09:27:44;;;;;;;0.80;0.80;;;2.20;99.90;;;-143.19;100.00;53775.09;4872720;29;20210;-64
2022/03/07 09:30:14;;;;;;;0.70;0.70;;;2.50;99.90;;;-143.19;100.00;53775.09;4932630;29;20230;-64
2022/03/07 09:32:42;;;;;;;0.70;0.70;;;2.40;99.90;;;-143.19;100.00;53775.09;4937430;29;20244;-64
2022/03/07 09:35:11;;;;;;;0.68;0.68;;;2.40;99.90;;;-143.19;100.00;53775.09;4945704;29;20217;-64
2022/03/07 09:37:40;;;;;;;0.90;0.90;;;2.50;99.90;;;-143.19;100.00;53775.09;4905416;29;20562;-64
2022/03/07 09:40:09;;;;;;;0.70;0.70;;;2.80;99.90;;;-143.19;100.00;53775.09;4906519;29;20197;-64
2022/03/07 09:42:37;;;;;;;0.82;0.82;;;2.50;99.90;;;-143.19;100.00;53775.09;4937404;29;20226;-63
2022/03/07 09:45:12;;;;;;;0.70;0.70;;;2.50;99.90;;;-143.19;100.00;53775.09;4937903;28;20213;-63
2022/03/07 09:47:42;;;;;;;0.50;0.50;;;2.50;99.90;;;-143.19;100.00;53775.09;4966780;28;20198;-66
2022/03/07 09:50:11;;;;;;;0.60;0.60;;;2.60;99.90;;;-143.19;100.00;53775.09;4922231;29;20217;-66
2022/03/07 09:52:42;;;;;;;0.70;0.70;;;2.70;99.90;;;-143.19;100.00;53775.09;4934321;29;20241;-66
2022/03/07 09:55:14;;;;;;;1.17;1.08;;;2.80;99.90;;;-143.19;100.00;53775.09;4922484;28;20218;-66
2022/03/07 09:57:46;;;;;;;0.60;0.60;;;2.90;99.90;;;-143.19;100.00;53775.09;4954376;28;20203;-66
2022/03/07 10:00:16;;;;;;;1.25;1.15;;;2.90;99.90;;;-143.19;100.00;53775.09;4915503;28;20221;-67
2022/03/07 10:03:00;;;;;;;0.60;0.60;;;3.00;99.90;;;-143.19;100.00;53775.09;4917847;29;20221;-66
2022/03/07 10:05:34;;;;;;;0.70;0.70;;;3.10;99.90;;;-143.19;100.00;53775.09;4920869;29;20215;-66
2022/03/07 10:08:08;;;;;;;0.73;0.73;;;3.20;99.90;;;-143.19;100.00;53775.09;4920587;29;20201;-66
2022/03/07 10:10:41;;;;;;;0.63;0.63;;;3.30;99.90;;;-143.19;100.00;53775.09;4969877;28;20209;-66
2022/03/07 10:13:12;;;;;;;0.70;0.70;;;3.30;99.90;;;-143.19;100.00;53775.09;4935032;29;20226;-66
2022/03/07 10:15:42;;;;;;;0.73;0.73;;;3.20;99.90;;;-143.19;100.00;53775.09;4968709;28;20213;-66